createdAt,value
2018-11-04T00:00:53.496Z,21.17
2018-11-04T00:03:21.950Z,21.10
2018-11-04T00:05:50.569Z,21.40
2018-11-04T00:08:19.253Z,20.43
2018-11-04T00:10:47.864Z,20.60
2018-11-04T00:13:16.317Z,19.57
2018-11-04T00:15:44.876Z,21.37
2018-11-04T00:18:13.344Z,21.70
2018-11-04T00:20:41.792Z,21.40
2018-11-04T00:23:10.254Z,20.27
2018-11-04T00:25:38.701Z,20.43
2018-11-04T00:28:08.189Z,19.63
2018-11-04T00:30:36.639Z,20.23
2018-11-04T00:33:05.618Z,20.30
2018-11-04T00:35:34.287Z,20.57
2018-11-04T00:38:02.868Z,20.73
2018-11-04T00:40:31.659Z,19.67
2018-11-04T00:43:00.410Z,20.13
2018-11-04T00:45:29.195Z,19.47
2018-11-04T00:47:58.024Z,18.20
2018-11-04T00:50:26.717Z,18.47
2018-11-04T00:52:55.542Z,20.23
2018-11-04T00:55:24.098Z,18.63
2018-11-04T00:57:52.784Z,20.13
2018-11-04T01:00:21.254Z,19.53
2018-11-04T01:02:50.862Z,19.20
2018-11-04T01:05:19.753Z,19.90
2018-11-04T01:07:48.487Z,20.13
2018-11-04T01:10:17.046Z,19.73
2018-11-04T01:12:45.895Z,19.23
2018-11-04T01:15:15.601Z,20.47
2018-11-04T01:17:44.634Z,19.73
2018-11-04T01:20:14.637Z,19.47
2018-11-04T01:22:44.230Z,19.83
2018-11-04T01:25:12.954Z,19.70
2018-11-04T01:27:41.822Z,20.10
2018-11-04T01:30:12.520Z,19.73
2018-11-04T01:32:40.976Z,18.97
2018-11-04T01:35:09.828Z,19.13
2018-11-04T01:37:38.377Z,18.67
2018-11-04T01:40:07.831Z,18.43
2018-11-04T01:42:36.604Z,19.67
2018-11-04T01:45:06.432Z,19.77
2018-11-04T01:47:34.996Z,19.10
2018-11-04T01:50:03.868Z,19.57
2018-11-04T01:52:32.375Z,19.60
2018-11-04T01:55:00.996Z,18.90
2018-11-04T01:57:29.575Z,19.23
2018-11-04T01:59:58.355Z,20.23
2018-11-04T02:02:26.780Z,18.70
2018-11-04T02:04:55.384Z,18.50
2018-11-04T02:07:23.943Z,18.80
2018-11-04T02:09:52.458Z,20.07
2018-11-04T02:12:21.088Z,18.67
2018-11-04T02:14:49.670Z,17.10
2018-11-04T02:17:18.521Z,19.73
2018-11-04T02:19:46.981Z,18.83
2018-11-04T02:22:15.417Z,19.67
2018-11-04T02:24:43.943Z,19.63
2018-11-04T02:27:12.523Z,19.33
2018-11-04T02:29:41.210Z,19.80
2018-11-04T02:32:10.131Z,19.20
2018-11-04T02:34:38.815Z,19.73
2018-11-04T02:37:12.229Z,18.73
2018-11-04T02:39:40.661Z,20.33
2018-11-04T02:42:09.133Z,19.27
2018-11-04T02:44:37.626Z,19.90
2018-11-04T02:47:06.158Z,20.07
2018-11-04T02:49:34.561Z,20.57
2018-11-04T02:52:03.011Z,19.87
2018-11-04T02:54:31.492Z,19.40
2018-11-04T02:56:59.977Z,18.33
2018-11-04T02:59:28.618Z,20.53
2018-11-04T03:01:57.131Z,20.63
2018-11-04T03:04:25.543Z,20.37
2018-11-04T03:06:54.002Z,20.40
2018-11-04T03:09:22.496Z,21.20
2018-11-04T03:11:50.925Z,20.57
2018-11-04T03:14:19.468Z,19.00
2018-11-04T03:16:47.957Z,19.87
2018-11-04T03:19:16.502Z,19.93
2018-11-04T03:21:45.031Z,20.83
2018-11-04T03:24:13.439Z,19.70
2018-11-04T03:26:42.161Z,19.50
2018-11-04T03:29:10.570Z,19.33
2018-11-04T03:31:39.009Z,19.70
2018-11-04T03:34:07.441Z,18.60
2018-11-04T03:36:35.882Z,20.53
2018-11-04T03:39:06.083Z,19.37
2018-11-04T03:41:34.539Z,18.87
2018-11-04T03:44:03.118Z,18.10
2018-11-04T03:46:31.552Z,18.27
2018-11-04T03:49:00.066Z,19.33
2018-11-04T03:51:28.529Z,18.60
2018-11-04T03:53:56.961Z,19.63
2018-11-04T03:56:25.405Z,20.17
2018-11-04T03:58:53.863Z,20.37
2018-11-04T04:01:22.502Z,19.37
2018-11-04T04:03:50.947Z,18.87
2018-11-04T04:06:19.463Z,19.57
2018-11-04T04:08:47.889Z,20.13
2018-11-04T04:11:16.358Z,19.23
2018-11-04T04:13:44.804Z,19.47
2018-11-04T04:16:13.225Z,18.03
2018-11-04T04:18:41.640Z,18.53
2018-11-04T04:21:10.845Z,18.53
2018-11-04T04:23:40.469Z,18.93
2018-11-04T04:26:10.171Z,19.27
2018-11-04T04:28:38.613Z,20.07
2018-11-04T04:31:07.057Z,19.37
2018-11-04T04:33:35.502Z,18.07
2018-11-04T04:36:03.949Z,20.73
2018-11-04T04:38:32.365Z,18.60
2018-11-04T04:41:00.821Z,18.30
2018-11-04T04:43:29.266Z,20.13
2018-11-04T04:45:57.689Z,20.03
2018-11-04T04:48:26.224Z,21.43
2018-11-04T04:50:54.677Z,19.53
2018-11-04T04:53:24.091Z,21.53
2018-11-04T04:55:53.903Z,21.00
2018-11-04T04:58:22.587Z,19.53
2018-11-04T05:00:51.395Z,19.50
2018-11-04T05:03:19.837Z,19.93
2018-11-04T05:05:48.356Z,21.10
2018-11-04T05:08:16.775Z,20.47
2018-11-04T05:10:45.348Z,18.90
2018-11-04T05:13:13.818Z,20.03
2018-11-04T05:15:42.330Z,20.30
2018-11-04T05:18:10.756Z,20.30
2018-11-04T05:20:39.181Z,19.13
2018-11-04T05:23:07.629Z,18.67
2018-11-04T05:25:36.051Z,20.13
2018-11-04T05:28:04.547Z,19.30
2018-11-04T05:30:32.995Z,20.23
2018-11-04T05:33:01.434Z,20.10
2018-11-04T05:35:29.861Z,19.30
2018-11-04T05:37:58.298Z,19.33
2018-11-04T05:40:26.745Z,21.07
2018-11-04T05:42:55.205Z,19.30
2018-11-04T05:45:23.641Z,20.03
2018-11-04T05:47:52.092Z,19.20
2018-11-04T05:50:20.578Z,18.73
2018-11-04T05:52:49.010Z,18.73
2018-11-04T05:55:17.473Z,17.43
2018-11-04T05:57:45.881Z,19.20
2018-11-04T06:00:14.311Z,19.63
2018-11-04T06:02:42.741Z,20.07
2018-11-04T06:05:11.700Z,19.83
2018-11-04T06:07:40.397Z,19.50
2018-11-04T06:10:08.869Z,20.23
2018-11-04T06:12:37.869Z,20.23
2018-11-04T06:15:07.348Z,20.03
2018-11-04T06:17:35.889Z,20.97
2018-11-04T06:20:04.957Z,19.73
2018-11-04T06:22:33.375Z,20.60
2018-11-04T06:25:01.795Z,20.87
2018-11-04T06:27:30.234Z,19.20
2018-11-04T06:29:58.683Z,20.23
2018-11-04T06:32:27.129Z,18.93
2018-11-04T06:34:55.567Z,19.80
2018-11-04T06:37:24.046Z,20.07
2018-11-04T06:39:52.485Z,19.00
2018-11-04T06:42:20.953Z,19.33
2018-11-04T06:44:49.427Z,18.93
2018-11-04T06:47:17.904Z,18.60
2018-11-04T06:49:46.526Z,17.43
2018-11-04T06:52:14.973Z,17.37
2018-11-04T06:54:44.382Z,18.27
2018-11-04T06:57:12.811Z,17.47
2018-11-04T06:59:41.391Z,15.90
2018-11-04T07:02:09.834Z,16.93
2018-11-04T07:04:38.370Z,16.87
2018-11-04T07:07:06.887Z,17.53
2018-11-04T07:09:35.413Z,17.67
2018-11-04T07:12:03.883Z,16.40
2018-11-04T07:14:32.316Z,17.03
2018-11-04T07:17:00.728Z,15.50
2018-11-04T07:19:29.180Z,16.07
2018-11-04T07:21:57.641Z,14.23
2018-11-04T07:24:26.098Z,15.43
2018-11-04T07:26:54.583Z,15.93
2018-11-04T07:29:23.026Z,14.50
2018-11-04T07:31:51.511Z,14.87
2018-11-04T07:34:20.066Z,14.60
2018-11-04T07:36:48.534Z,14.70
2018-11-04T07:39:16.979Z,13.47
2018-11-04T07:41:45.505Z,13.80
2018-11-04T07:44:14.059Z,13.77
2018-11-04T07:46:42.468Z,13.17
2018-11-04T07:49:10.992Z,13.00
2018-11-04T07:51:39.496Z,12.70
2018-11-04T07:54:07.925Z,13.47
2018-11-04T07:56:36.399Z,13.17
2018-11-04T07:59:05.033Z,12.70
2018-11-04T08:01:33.458Z,13.30
2018-11-04T08:04:02.039Z,12.43
2018-11-04T08:06:30.416Z,13.73
2018-11-04T08:08:58.929Z,13.17
2018-11-04T08:11:27.391Z,12.83
2018-11-04T08:13:55.893Z,11.83
2018-11-04T08:16:24.368Z,12.40
2018-11-04T08:18:52.840Z,11.67
2018-11-04T08:21:21.357Z,10.23
2018-11-04T08:23:49.802Z,9.50
2018-11-04T08:26:18.232Z,10.27
2018-11-04T08:28:46.730Z,9.97
2018-11-04T08:31:15.172Z,11.07
2018-11-04T08:33:43.628Z,10.97
2018-11-04T08:36:12.369Z,11.57
2018-11-04T08:38:40.797Z,11.27
2018-11-04T08:41:09.445Z,11.67
2018-11-04T08:43:37.952Z,11.67
2018-11-04T08:46:06.440Z,10.80
2018-11-04T08:48:34.974Z,9.77
2018-11-04T08:51:03.663Z,11.90
2018-11-04T08:53:32.343Z,10.50
2018-11-04T08:56:00.835Z,10.30
2018-11-04T08:58:29.266Z,9.30
2018-11-04T09:00:57.713Z,9.43
2018-11-04T09:03:26.213Z,11.07
2018-11-04T09:05:54.771Z,10.23
2018-11-04T09:08:23.213Z,13.67
2018-11-04T09:10:51.809Z,9.80
2018-11-04T09:13:20.245Z,9.67
2018-11-04T09:15:48.718Z,11.03
2018-11-04T09:18:17.241Z,8.70
2018-11-04T09:20:45.696Z,9.40
2018-11-04T09:23:14.168Z,9.43
2018-11-04T09:25:42.630Z,9.67
2018-11-04T09:28:11.079Z,8.77
2018-11-04T09:30:39.546Z,9.80
2018-11-04T09:33:08.033Z,8.80
2018-11-04T09:35:36.743Z,8.67
2018-11-04T09:38:05.063Z,8.40
2018-11-04T09:40:33.552Z,8.60
2018-11-04T09:43:02.001Z,10.13
2018-11-04T09:45:30.463Z,9.70
2018-11-04T09:47:58.923Z,9.07
2018-11-04T09:50:27.392Z,9.50
2018-11-04T09:52:55.893Z,9.90
2018-11-04T09:55:24.357Z,10.13
2018-11-04T09:57:52.834Z,9.97
2018-11-04T10:00:21.261Z,9.37
2018-11-04T10:02:49.741Z,10.13
2018-11-04T10:05:18.223Z,9.77
2018-11-04T10:07:46.807Z,10.47
2018-11-04T10:10:15.590Z,10.00
2018-11-04T10:12:44.719Z,10.13
2018-11-04T10:15:13.243Z,9.57
2018-11-04T10:17:41.965Z,10.20
2018-11-04T10:20:11.625Z,9.43
2018-11-04T10:22:40.466Z,9.33
2018-11-04T10:25:10.271Z,9.23
2018-11-04T10:27:39.095Z,9.40
2018-11-04T10:30:09.704Z,10.43
2018-11-04T10:32:38.275Z,10.00
2018-11-04T10:35:07.274Z,10.23
2018-11-04T10:37:35.960Z,9.93
2018-11-04T10:40:05.219Z,10.87
2018-11-04T10:42:33.717Z,10.00
2018-11-04T10:45:02.235Z,10.00
2018-11-04T10:47:30.693Z,10.17
2018-11-04T10:49:59.284Z,9.43
2018-11-04T10:52:27.727Z,10.33
2018-11-04T10:54:56.230Z,11.20
2018-11-04T10:57:24.684Z,10.23
2018-11-04T10:59:53.194Z,10.03
2018-11-04T11:02:21.695Z,9.43
2018-11-04T11:04:50.379Z,11.03
2018-11-04T11:07:18.883Z,10.90
2018-11-04T11:09:47.365Z,10.53
2018-11-04T11:12:15.804Z,9.60
2018-11-04T11:14:44.316Z,10.87
2018-11-04T11:17:12.794Z,10.53
2018-11-04T11:19:41.584Z,10.63
2018-11-04T11:22:10.227Z,11.90
2018-11-04T11:24:38.720Z,13.80
2018-11-04T11:27:07.317Z,13.57
2018-11-04T11:29:35.862Z,11.83
2018-11-04T11:32:04.502Z,10.90
2018-11-04T11:34:34.492Z,9.10
2018-11-04T11:37:04.022Z,9.63
2018-11-04T11:39:32.683Z,9.27
2018-11-04T11:42:01.223Z,10.40
2018-11-04T11:44:29.763Z,10.10
2018-11-04T11:46:58.357Z,9.80
2018-11-04T11:49:26.890Z,12.87
2018-11-04T11:51:55.472Z,13.73
2018-11-04T11:54:23.979Z,11.87
2018-11-04T11:56:52.463Z,12.33
2018-11-04T11:59:21.003Z,10.73
2018-11-04T12:01:49.574Z,10.00
2018-11-04T12:04:18.334Z,10.90
2018-11-04T12:06:46.908Z,11.93
2018-11-04T12:09:15.754Z,12.70
2018-11-04T12:11:44.418Z,11.57
2018-11-04T12:14:13.278Z,10.43
2018-11-04T12:16:42.098Z,10.03
2018-11-04T12:19:11.168Z,9.97
2018-11-04T12:21:39.813Z,9.87
2018-11-04T12:24:08.960Z,10.17
2018-11-04T12:26:38.194Z,9.53
2018-11-04T12:29:07.497Z,10.63
2018-11-04T12:31:39.153Z,10.00
2018-11-04T12:34:09.177Z,11.57
2018-11-04T12:36:39.139Z,11.60
2018-11-04T12:39:11.896Z,10.73
2018-11-04T12:41:42.142Z,10.10
2018-11-04T12:44:10.728Z,10.53
2018-11-04T12:46:44.171Z,11.57
2018-11-04T12:49:12.868Z,12.03
2018-11-04T12:51:42.567Z,10.63
2018-11-04T12:54:13.957Z,11.00
2018-11-04T12:56:44.486Z,12.57
2018-11-04T12:59:15.438Z,12.27
2018-11-04T13:01:44.249Z,10.33
2018-11-04T13:04:14.731Z,11.63
2018-11-04T13:06:43.599Z,11.80
2018-11-04T13:09:13.510Z,11.97
2018-11-04T13:11:43.664Z,11.47
2018-11-04T13:14:12.713Z,13.97
2018-11-04T13:16:44.917Z,12.77
2018-11-04T13:19:14.232Z,11.07
2018-11-04T13:21:49.814Z,11.33
2018-11-04T13:24:20.320Z,12.67
2018-11-04T13:26:49.221Z,11.07
2018-11-04T13:29:17.855Z,12.40
2018-11-04T13:31:46.798Z,9.67
2018-11-04T13:34:15.407Z,9.23
2018-11-04T13:36:43.954Z,10.43
2018-11-04T13:39:12.478Z,9.90
2018-11-04T13:41:41.851Z,9.57
2018-11-04T13:44:10.379Z,11.30
2018-11-04T13:46:39.075Z,9.97
2018-11-04T13:49:07.782Z,10.20
2018-11-04T13:51:36.296Z,10.00
2018-11-04T13:54:04.870Z,10.50
2018-11-04T13:56:33.390Z,10.73
2018-11-04T13:59:01.957Z,11.50
2018-11-04T14:01:30.544Z,11.07
2018-11-04T14:03:59.199Z,12.37
2018-11-04T14:06:27.722Z,12.67
2018-11-04T14:08:56.872Z,11.83
2018-11-04T14:11:25.524Z,12.43
2018-11-04T14:13:54.111Z,13.10
2018-11-04T14:16:22.732Z,12.50
2018-11-04T14:18:51.469Z,11.57
2018-11-04T14:21:20.172Z,11.30
2018-11-04T14:23:49.021Z,11.57
2018-11-04T14:26:17.595Z,11.67
2018-11-04T14:28:46.281Z,11.73
2018-11-04T14:31:15.138Z,12.17
2018-11-04T14:33:43.845Z,11.30
2018-11-04T14:36:12.555Z,12.43
2018-11-04T14:38:41.198Z,11.10
2018-11-04T14:41:09.877Z,10.53
2018-11-04T14:43:39.067Z,11.03
2018-11-04T14:46:07.958Z,10.70
2018-11-04T14:48:36.750Z,10.77
2018-11-04T14:51:05.687Z,10.60
2018-11-04T14:53:34.397Z,12.10
2018-11-04T14:56:03.169Z,10.50
2018-11-04T14:58:31.736Z,10.67
2018-11-04T15:01:00.842Z,10.27
2018-11-04T15:03:30.216Z,11.03
2018-11-04T15:05:59.097Z,10.10
2018-11-04T15:08:28.094Z,11.20
2018-11-04T15:10:56.947Z,10.37
2018-11-04T15:13:25.729Z,10.13
2018-11-04T15:15:54.653Z,10.83
2018-11-04T15:18:27.422Z,10.07
2018-11-04T15:21:01.227Z,11.03
2018-11-04T15:23:30.030Z,11.67
2018-11-04T15:25:59.009Z,12.17
2018-11-04T15:28:27.716Z,13.87
2018-11-04T15:30:56.327Z,12.50
2018-11-04T15:33:25.638Z,11.27
2018-11-04T15:35:54.537Z,11.17
2018-11-04T15:38:24.688Z,10.70
2018-11-04T15:40:53.764Z,10.33
2018-11-04T15:43:22.519Z,9.73
2018-11-04T15:45:51.157Z,10.30
2018-11-04T15:48:19.840Z,10.80
2018-11-04T15:50:48.502Z,10.63
2018-11-04T15:53:17.710Z,11.70
2018-11-04T15:55:46.765Z,11.27
2018-11-04T15:58:15.466Z,11.33
2018-11-04T16:00:44.300Z,12.27
2018-11-04T16:03:13.105Z,12.80
2018-11-04T16:05:42.152Z,13.27
2018-11-04T16:08:12.037Z,12.90
2018-11-04T16:10:41.889Z,13.37
2018-11-04T16:13:10.734Z,14.33
2018-11-04T16:15:40.367Z,14.80
2018-11-04T16:18:09.474Z,14.00
2018-11-04T16:20:38.272Z,14.57
2018-11-04T16:23:07.520Z,14.47
2018-11-04T16:25:36.871Z,14.07
2018-11-04T16:28:05.798Z,14.27
2018-11-04T16:30:34.961Z,13.07
2018-11-04T16:33:03.916Z,13.17
2018-11-04T16:35:32.923Z,13.50
2018-11-04T16:38:01.965Z,12.97
2018-11-04T16:40:30.811Z,13.57
2018-11-04T16:43:00.090Z,12.33
2018-11-04T16:45:29.003Z,13.27
2018-11-04T16:47:57.978Z,14.30
2018-11-04T16:50:26.898Z,12.77
2018-11-04T16:52:55.824Z,11.47
2018-11-04T16:55:24.755Z,14.43
2018-11-04T16:57:53.723Z,13.23
2018-11-04T17:00:22.642Z,13.53
2018-11-04T17:02:51.532Z,14.63
2018-11-04T17:05:20.534Z,14.07
2018-11-04T17:07:49.729Z,14.50
2018-11-04T17:10:18.617Z,15.00
2018-11-04T17:12:47.583Z,15.53
2018-11-04T17:15:16.510Z,16.67
2018-11-04T17:17:45.872Z,17.50
2018-11-04T17:20:16.704Z,16.47
2018-11-04T17:22:46.283Z,17.70
2018-11-04T17:25:15.262Z,17.83
2018-11-04T17:27:44.269Z,19.57
2018-11-04T17:30:15.474Z,18.43
2018-11-04T17:32:45.674Z,17.70
2018-11-04T17:35:15.366Z,17.07
2018-11-04T17:37:49.609Z,17.63
2018-11-04T17:40:21.297Z,17.50
2018-11-04T17:42:51.210Z,19.27
2018-11-04T17:45:20.639Z,19.57
2018-11-04T17:47:49.672Z,19.07
2018-11-04T17:50:20.236Z,19.13
2018-11-04T17:52:49.837Z,20.43
2018-11-04T17:55:18.824Z,20.33
2018-11-04T17:57:47.850Z,19.87
2018-11-04T18:00:17.660Z,21.40
2018-11-04T18:02:48.117Z,19.87
2018-11-04T18:05:17.338Z,21.07
2018-11-04T18:07:47.551Z,23.17
2018-11-04T18:12:48.575Z,20.93
2018-11-04T18:15:18.212Z,20.27
2018-11-04T18:17:48.359Z,21.57
2018-11-04T18:22:44.352Z,21.43
2018-11-04T18:25:13.883Z,20.73
2018-11-04T18:27:43.008Z,21.47
2018-11-04T18:30:14.192Z,20.63
2018-11-04T18:32:43.623Z,19.70
2018-11-04T18:35:14.236Z,21.20
2018-11-04T18:37:43.632Z,21.13
2018-11-04T18:40:15.189Z,19.87
2018-11-04T18:42:45.072Z,20.17
2018-11-04T18:45:17.144Z,19.30
2018-11-04T18:47:47.176Z,21.30
2018-11-04T18:50:20.709Z,20.00
2018-11-04T18:52:49.896Z,20.70
2018-11-04T18:55:19.199Z,20.63
2018-11-04T18:57:52.968Z,20.20
2018-11-04T19:00:22.702Z,21.50
2018-11-04T19:02:51.718Z,21.60
2018-11-04T19:07:48.007Z,22.20
2018-11-04T19:10:19.186Z,22.70
2018-11-04T19:12:48.293Z,21.53
2018-11-04T19:15:19.324Z,22.73
2018-11-04T19:17:48.382Z,22.67
2018-11-04T19:22:45.926Z,22.07
2018-11-04T19:25:16.026Z,24.63
2018-11-04T19:27:45.587Z,25.90
2018-11-04T19:30:16.154Z,24.77
2018-11-04T19:32:46.287Z,26.03
2018-11-04T19:35:16.876Z,25.07
2018-11-04T19:37:47.361Z,23.53
2018-11-04T19:40:18.202Z,25.53
2018-11-04T19:42:48.523Z,23.60
2018-11-04T19:45:20.352Z,25.30
2018-11-04T19:47:51.126Z,26.07
2018-11-04T19:50:21.030Z,27.77
2018-11-04T19:52:51.300Z,27.57
2018-11-04T19:57:47.953Z,23.70
2018-11-04T20:00:17.294Z,24.30
2018-11-04T20:02:46.729Z,23.50
2018-11-04T20:05:19.857Z,23.40
2018-11-04T20:07:49.013Z,22.57
2018-11-04T20:10:19.628Z,24.40
2018-11-04T20:12:56.221Z,24.10
2018-11-04T20:15:27.340Z,23.57
2018-11-04T20:17:56.556Z,23.57
2018-11-04T20:20:27.386Z,21.97
2018-11-04T20:22:57.008Z,23.53
2018-11-04T20:25:31.789Z,20.80
2018-11-04T20:28:01.349Z,22.30
2018-11-04T20:30:31.401Z,22.13
2018-11-04T20:33:06.107Z,23.60
2018-11-04T20:35:35.465Z,21.63
2018-11-04T20:38:07.394Z,22.17
2018-11-04T20:43:13.471Z,21.60
2018-11-04T20:45:43.162Z,24.83
2018-11-04T20:48:18.086Z,27.50
2018-11-04T20:50:53.651Z,28.27
2018-11-04T20:53:25.055Z,26.90
2018-11-04T20:58:30.631Z,26.90
2018-11-04T21:01:02.181Z,23.90
2018-11-04T21:03:31.637Z,24.37
2018-11-04T21:06:00.812Z,25.10
2018-11-04T21:08:32.321Z,20.43
2018-11-04T21:11:01.379Z,21.30
2018-11-04T21:13:31.908Z,23.07
2018-11-04T21:16:01.927Z,23.73
2018-11-04T21:18:30.959Z,26.47
2018-11-04T21:20:59.923Z,23.23
2018-11-04T21:23:29.053Z,23.77
2018-11-04T21:25:59.417Z,19.63
2018-11-04T21:28:29.021Z,21.43
2018-11-04T21:30:58.560Z,17.53
2018-11-04T21:33:27.961Z,15.17
2018-11-04T21:35:57.800Z,15.87
2018-11-04T21:38:26.861Z,15.33
2018-11-04T21:41:02.743Z,15.27
2018-11-04T21:43:32.524Z,16.57
2018-11-04T21:46:01.307Z,15.83
2018-11-04T21:48:30.900Z,16.67
2018-11-04T21:50:59.789Z,17.87
2018-11-04T21:53:29.081Z,17.97
2018-11-04T21:55:57.985Z,20.83
2018-11-04T21:58:26.698Z,19.57
2018-11-04T22:00:55.630Z,19.40
2018-11-04T22:03:24.574Z,19.60
2018-11-04T22:05:54.084Z,20.53
2018-11-04T22:08:23.202Z,21.33
2018-11-04T22:10:52.380Z,22.23
2018-11-04T22:13:21.535Z,21.47
2018-11-04T22:15:50.339Z,19.43
2018-11-04T22:18:19.001Z,18.47
2018-11-04T22:20:47.640Z,18.80
2018-11-04T22:23:16.172Z,18.53
2018-11-04T22:25:46.725Z,19.50
2018-11-04T22:28:15.956Z,19.30
2018-11-04T22:30:44.492Z,19.23
2018-11-04T22:33:12.993Z,18.30
2018-11-04T22:35:41.599Z,19.00
2018-11-04T22:38:10.136Z,18.80
2018-11-04T22:40:38.935Z,18.03
2018-11-04T22:43:07.417Z,20.00
2018-11-04T22:45:35.851Z,20.63
2018-11-04T22:48:04.356Z,23.00
2018-11-04T22:50:33.217Z,25.37
2018-11-04T22:53:02.536Z,25.50
2018-11-04T22:55:32.232Z,25.73
2018-11-04T22:58:07.455Z,28.00
2018-11-04T23:00:46.023Z,31.83
2018-11-04T23:03:14.764Z,44.77
2018-11-04T23:05:44.799Z,52.80
2018-11-04T23:08:13.263Z,46.47
2018-11-04T23:10:42.553Z,45.80
2018-11-04T23:13:13.310Z,43.17
2018-11-04T23:15:42.564Z,45.13
2018-11-04T23:18:11.143Z,45.70
2018-11-04T23:20:39.569Z,43.73
2018-11-04T23:23:08.243Z,40.07
2018-11-04T23:25:36.956Z,41.93
2018-11-04T23:28:05.499Z,42.40
2018-11-04T23:30:34.415Z,40.80
2018-11-04T23:33:02.847Z,41.73
2018-11-04T23:35:32.249Z,38.37
2018-11-04T23:38:00.722Z,39.47
2018-11-04T23:40:34.485Z,40.77
2018-11-04T23:43:03.709Z,42.97
2018-11-04T23:45:32.186Z,43.23
2018-11-04T23:48:00.853Z,43.43
2018-11-04T23:50:30.018Z,42.97
2018-11-04T23:52:58.516Z,43.10
2018-11-04T23:55:27.939Z,45.37
2018-11-04T23:57:57.055Z,46.93
